Time;durP1;ratioP1;P1;durP2;ratioP2;P2;SDS_P1;SDS_P2;PMS_P1;PMS_P2;Temp;Humidity;BMP_temperature;BMP_pressure;BME280_temperature;BME280_humidity;BME280_pressure;Samples;Min_cycle;Max_cycle;Signal;HPM_P1;HPM_P2
2023/05/29 00:00:42;;;;;;;11.40;3.00;;;13.00;99.90;;;;;;5082318;28;20028;-42
2023/05/29 00:03:09;;;;;;;14.18;3.25;;;13.00;99.90;;;;;;5082847;28;20028;-42
2023/05/29 00:05:37;;;;;;;8.50;2.42;;;12.90;99.90;;;;;;5082057;28;20040;-42
2023/05/29 00:08:06;;;;;;;9.93;2.97;;;12.90;99.90;;;;;;5082749;28;20020;-39
2023/05/29 00:10:31;;;;;;;9.80;2.70;;;12.90;99.90;;;;;;5082867;28;20064;-41
2023/05/29 00:12:57;;;;;;;12.10;3.05;;;12.80;99.90;;;;;;5082071;28;20435;-43
2023/05/29 00:15:23;;;;;;;12.68;3.35;;;12.80;99.90;;;;;;5082767;28;20028;-42
2023/05/29 00:17:49;;;;;;;8.80;2.60;;;12.70;99.90;;;;;;5083111;28;20031;-42
2023/05/29 00:20:18;;;;;;;8.13;2.60;;;12.70;99.90;;;;;;5082480;28;20024;-43
2023/05/29 00:22:43;;;;;;;14.70;2.92;;;12.60;99.90;;;;;;5082763;28;20039;-40
2023/05/29 00:25:09;;;;;;;7.47;2.50;;;12.60;99.90;;;;;;5083126;28;20028;-42
2023/05/29 00:27:35;;;;;;;9.45;2.67;;;12.60;99.90;;;;;;5082947;28;20077;-42
2023/05/29 00:30:02;;;;;;;11.20;2.85;;;12.50;99.90;;;;;;5082850;28;20458;-42
2023/05/29 00:32:28;;;;;;;10.55;3.25;;;12.50;99.90;;;;;;5082844;28;20379;-42
2023/05/29 00:34:55;;;;;;;10.35;2.47;;;12.50;99.90;;;;;;5083395;28;20040;-41
2023/05/29 00:37:21;;;;;;;7.63;2.20;;;12.40;99.90;;;;;;5082474;28;20109;-41
2023/05/29 00:39:47;;;;;;;9.65;2.40;;;12.40;99.90;;;;;;5083017;28;20047;-41
2023/05/29 00:42:13;;;;;;;10.57;2.70;;;12.40;99.90;;;;;;5082797;28;20028;-42
2023/05/29 00:44:38;;;;;;;8.07;2.33;;;12.40;99.90;;;;;;5081531;28;20024;-42
2023/05/29 00:47:05;;;;;;;8.77;2.58;;;12.40;99.90;;;;;;5081237;28;20480;-43
2023/05/29 00:49:31;;;;;;;11.93;2.70;;;12.40;99.90;;;;;;5080363;28;20024;-40
2023/05/29 00:51:56;;;;;;;10.27;2.40;;;12.30;99.90;;;;;;5082417;28;20462;-42
2023/05/29 00:54:28;;;;;;;9.48;2.38;;;12.30;99.90;;;;;;5082038;28;20634;-42
2023/05/29 00:56:54;;;;;;;6.72;2.03;;;12.30;99.90;;;;;;5081730;28;20043;-43
2023/05/29 00:59:22;;;;;;;6.05;1.98;;;12.30;99.90;;;;;;5081999;28;20036;-43
2023/05/29 01:01:51;;;;;;;5.85;1.80;;;12.30;99.90;;;;;;5082827;28;20077;-43
2023/05/29 01:04:17;;;;;;;7.25;2.20;;;12.30;99.90;;;;;;5082065;28;20349;-43
2023/05/29 01:06:43;;;;;;;6.97;2.08;;;12.30;99.90;;;;;;5082645;28;20499;-42
2023/05/29 01:09:13;;;;;;;9.20;1.98;;;12.30;99.90;;;;;;5082219;28;20081;-41
2023/05/29 01:11:45;;;;;;;8.38;1.90;;;12.30;99.90;;;;;;5082079;28;20108;-42
2023/05/29 01:14:27;;;;;;;6.63;1.63;;;12.30;99.90;;;;;;5081563;28;20773;-41
2023/05/29 01:17:03;;;;;;;8.93;2.03;;;12.20;99.90;;;;;;5079824;28;20054;-39
2023/05/29 01:19:53;;;;;;;6.32;1.80;;;12.20;99.90;;;;;;5080045;28;20047;-42
2023/05/29 01:22:41;;;;;;;7.35;2.03;;;12.10;99.90;;;;;;5081694;28;20472;-42
2023/05/29 01:25:27;;;;;;;5.57;1.60;;;12.10;99.90;;;;;;5065370;28;20055;-42
2023/05/29 01:27:54;;;;;;;7.68;1.95;;;12.10;99.90;;;;;;5082388;28;20459;-43
2023/05/29 01:30:21;;;;;;;6.88;2.03;;;12.00;99.90;;;;;;5081584;28;20140;-41
2023/05/29 01:32:47;;;;;;;7.47;2.30;;;12.00;99.90;;;;;;5081873;28;20027;-42
2023/05/29 01:35:12;;;;;;;6.38;1.73;;;12.00;99.90;;;;;;5082198;28;20043;-42
2023/05/29 01:37:38;;;;;;;9.20;2.42;;;12.00;99.90;;;;;;5081978;28;20111;-40
2023/05/29 01:40:04;;;;;;;7.53;2.00;;;11.90;99.90;;;;;;5081704;28;20035;-42
2023/05/29 01:42:33;;;;;;;4.57;1.63;;;11.90;99.90;;;;;;5081905;28;20035;-43
2023/05/29 01:45:00;;;;;;;12.77;2.97;;;11.90;99.90;;;;;;5082708;28;20769;-41
2023/05/29 01:47:26;;;;;;;6.45;2.10;;;11.90;99.90;;;;;;5081003;28;20036;-42
2023/05/29 01:49:52;;;;;;;10.25;2.78;;;11.90;99.90;;;;;;5082234;28;20020;-40
2023/05/29 01:52:20;;;;;;;7.15;2.15;;;11.80;99.90;;;;;;5081308;28;20051;-42
2023/05/29 01:54:46;;;;;;;9.25;2.80;;;11.80;99.90;;;;;;5060307;28;20045;-40
2023/05/29 01:57:12;;;;;;;8.55;2.17;;;11.80;99.90;;;;;;5074469;28;20403;-40
2023/05/29 01:59:38;;;;;;;8.95;2.50;;;11.70;99.90;;;;;;5080088;28;20044;-41
2023/05/29 02:02:12;;;;;;;10.48;2.55;;;11.70;99.90;;;;;;5080398;28;20017;-41
2023/05/29 02:04:38;;;;;;;9.95;2.20;;;11.70;99.90;;;;;;5080882;28;20031;-40
2023/05/29 02:07:04;;;;;;;9.70;2.33;;;11.70;99.90;;;;;;5080553;28;20032;-40
2023/05/29 02:09:32;;;;;;;9.40;2.42;;;11.60;99.90;;;;;;5080568;28;20020;-41
2023/05/29 02:11:57;;;;;;;11.07;2.70;;;11.50;99.90;;;;;;5081957;28;20131;-41
2023/05/29 02:14:26;;;;;;;13.68;2.55;;;11.50;99.90;;;;;;5080548;28;20645;-41
2023/05/29 02:16:52;;;;;;;8.70;2.75;;;11.50;99.90;;;;;;5080982;28;20018;-39
2023/05/29 02:19:18;;;;;;;8.45;2.63;;;11.40;99.90;;;;;;5081192;28;20379;-41
2023/05/29 02:21:44;;;;;;;9.00;2.42;;;11.40;99.90;;;;;;5080551;28;20070;-41
2023/05/29 02:24:10;;;;;;;10.02;2.38;;;11.40;99.90;;;;;;5081118;28;20526;-42
2023/05/29 02:26:36;;;;;;;8.85;2.55;;;11.30;99.90;;;;;;5080873;28;20487;-38
2023/05/29 02:29:05;;;;;;;9.25;2.35;;;11.30;99.90;;;;;;5081214;28;20020;-41
2023/05/29 02:31:34;;;;;;;12.43;2.72;;;11.20;99.90;;;;;;5080982;28;20040;-40
2023/05/29 02:33:59;;;;;;;9.40;2.00;;;11.20;99.90;;;;;;5081376;28;20043;-40
2023/05/29 02:36:28;;;;;;;8.57;2.35;;;11.20;99.90;;;;;;5080237;28;20016;-38
2023/05/29 02:38:53;;;;;;;7.95;2.30;;;11.10;99.90;;;;;;5081853;28;20028;-39
2023/05/29 02:41:19;;;;;;;8.07;2.13;;;11.10;99.90;;;;;;5085339;28;20509;-38
2023/05/29 02:43:47;;;;;;;11.10;2.75;;;11.10;99.90;;;;;;5084210;28;20043;-40
2023/05/29 02:46:16;;;;;;;9.13;2.25;;;11.00;99.90;;;;;;5085507;28;20031;-37
2023/05/29 02:48:41;;;;;;;12.68;2.17;;;11.00;99.90;;;;;;5084360;28;20036;-39
2023/05/29 02:51:07;;;;;;;9.73;2.50;;;11.00;99.90;;;;;;5084337;28;20027;-41
2023/05/29 02:53:32;;;;;;;9.98;2.60;;;11.00;99.90;;;;;;5084292;28;20364;-42
2023/05/29 02:55:58;;;;;;;8.63;2.55;;;11.00;99.90;;;;;;5085228;28;20495;-41
2023/05/29 02:58:24;;;;;;;10.95;2.72;;;11.00;99.90;;;;;;5083625;28;20064;-41
2023/05/29 03:00:50;;;;;;;9.23;2.50;;;11.00;99.90;;;;;;5085177;28;20038;-42
2023/05/29 03:03:15;;;;;;;13.70;2.50;;;10.90;99.90;;;;;;5083562;28;20028;-43
2023/05/29 03:05:41;;;;;;;11.68;2.35;;;10.90;99.90;;;;;;5083523;28;20031;-38
2023/05/29 03:08:07;;;;;;;9.57;2.47;;;10.80;99.90;;;;;;5083924;28;20508;-38
2023/05/29 03:10:32;;;;;;;10.90;3.25;;;10.80;99.90;;;;;;5082935;28;20400;-42
2023/05/29 03:12:57;;;;;;;12.07;3.13;;;10.80;99.90;;;;;;5084778;28;20039;-40
2023/05/29 03:15:23;;;;;;;11.75;2.85;;;10.70;99.90;;;;;;5083888;28;20083;-39
2023/05/29 03:17:49;;;;;;;9.10;2.17;;;10.70;99.90;;;;;;5083854;28;20119;-41
2023/05/29 03:20:17;;;;;;;11.27;2.30;;;10.70;99.90;;;;;;5084253;28;20471;-41
2023/05/29 03:22:43;;;;;;;7.60;2.65;;;10.70;99.90;;;;;;5064500;28;20070;-39
2023/05/29 03:25:09;;;;;;;11.68;2.67;;;10.70;99.90;;;;;;5078071;28;20016;-36
2023/05/29 03:27:35;;;;;;;10.35;2.85;;;10.70;99.90;;;;;;5083931;28;20111;-42
2023/05/29 03:30:00;;;;;;;11.32;2.60;;;10.70;99.90;;;;;;5085209;28;20098;-39
2023/05/29 03:32:26;;;;;;;10.90;2.67;;;10.60;99.90;;;;;;5083218;28;20483;-41
2023/05/29 03:34:56;;;;;;;9.93;2.38;;;10.60;99.90;;;;;;5085635;28;20032;-40
2023/05/29 03:37:21;;;;;;;12.50;2.45;;;10.60;99.90;;;;;;5084687;28;20050;-40
2023/05/29 03:39:49;;;;;;;6.65;2.22;;;10.60;99.90;;;;;;5083857;28;20433;-40
2023/05/29 03:42:15;;;;;;;10.02;2.30;;;10.60;99.90;;;;;;5084084;28;20028;-39
2023/05/29 03:44:41;;;;;;;8.43;1.95;;;10.50;99.90;;;;;;5083580;28;20032;-41
2023/05/29 03:47:08;;;;;;;7.78;2.17;;;10.60;99.90;;;;;;5082529;28;20024;-39
2023/05/29 03:49:34;;;;;;;11.35;2.90;;;10.60;99.90;;;;;;5083143;28;20488;-39
2023/05/29 03:52:00;;;;;;;12.98;2.42;;;10.60;99.90;;;;;;5084666;28;20032;-39
2023/05/29 03:54:25;;;;;;;8.48;2.30;;;10.60;99.90;;;;;;5083259;28;20799;-42
2023/05/29 03:56:54;;;;;;;13.43;3.00;;;10.60;99.90;;;;;;5083755;28;20082;-39
2023/05/29 03:59:20;;;;;;;5.90;1.85;;;10.60;99.90;;;;;;5083774;28;20036;-41
2023/05/29 04:01:46;;;;;;;10.32;2.17;;;10.60;99.90;;;;;;5082883;28;20027;-40
2023/05/29 04:04:11;;;;;;;12.32;2.58;;;10.60;99.90;;;;;;5083490;28;20524;-39
2023/05/29 04:06:38;;;;;;;11.68;2.47;;;10.60;99.90;;;;;;5081729;28;20123;-40
2023/05/29 04:09:06;;;;;;;8.95;2.20;;;10.60;99.90;;;;;;5083513;28;20024;-40
2023/05/29 04:11:34;;;;;;;8.60;2.15;;;10.70;99.90;;;;;;5082893;28;20031;-40
2023/05/29 04:14:01;;;;;;;10.68;2.42;;;10.70;99.90;;;;;;5081934;28;20032;-42
2023/05/29 04:16:28;;;;;;;8.75;2.13;;;10.70;99.90;;;;;;5081912;28;20024;-40
2023/05/29 04:18:54;;;;;;;9.60;2.42;;;10.70;99.90;;;;;;5082951;28;20027;-39
2023/05/29 04:21:20;;;;;;;9.60;2.72;;;10.70;99.90;;;;;;5081669;28;20036;-40
2023/05/29 04:23:45;;;;;;;8.73;2.63;;;10.70;99.90;;;;;;5082554;28;20426;-41
2023/05/29 04:26:14;;;;;;;8.45;2.22;;;10.70;99.90;;;;;;5083023;28;20028;-41
2023/05/29 04:28:40;;;;;;;6.75;2.05;;;10.70;99.90;;;;;;5081599;28;20693;-39
2023/05/29 04:31:08;;;;;;;9.27;2.33;;;10.70;99.90;;;;;;5082308;28;20036;-38
2023/05/29 04:33:36;;;;;;;9.85;2.38;;;10.70;99.90;;;;;;5082496;28;20027;-40
2023/05/29 04:36:03;;;;;;;9.13;2.17;;;10.70;99.90;;;;;;5082083;28;20176;-40
2023/05/29 04:38:29;;;;;;;10.35;2.53;;;10.70;99.90;;;;;;5082095;28;20527;-42
2023/05/29 04:40:58;;;;;;;8.68;2.42;;;10.70;99.90;;;;;;5081551;28;20044;-40
2023/05/29 04:43:26;;;;;;;9.68;2.10;;;10.70;99.90;;;;;;5081224;28;20035;-39
2023/05/29 04:45:52;;;;;;;10.82;2.83;;;10.70;99.90;;;;;;5083495;28;20027;-39
2023/05/29 04:48:18;;;;;;;9.85;2.47;;;10.70;99.90;;;;;;5082829;28;20039;-39
2023/05/29 04:50:44;;;;;;;12.13;2.75;;;10.70;99.90;;;;;;5081999;28;20069;-40
2023/05/29 04:53:12;;;;;;;8.77;1.95;;;10.70;99.90;;;;;;5083089;28;20067;-41
2023/05/29 04:55:38;;;;;;;10.38;2.42;;;10.70;99.90;;;;;;5082271;28;20032;-39
2023/05/29 04:58:03;;;;;;;6.97;1.65;;;10.80;99.90;;;;;;5081502;28;20411;-38
2023/05/29 05:00:29;;;;;;;8.98;2.72;;;10.80;99.90;;;;;;5082106;28;20055;-42
2023/05/29 05:02:55;;;;;;;9.40;1.95;;;10.80;99.90;;;;;;5081693;28;20016;-42
2023/05/29 05:05:21;;;;;;;12.43;2.80;;;10.80;99.90;;;;;;5082562;28;20031;-41
2023/05/29 05:07:46;;;;;;;8.93;2.50;;;10.80;99.90;;;;;;5082328;28;20528;-41
2023/05/29 05:10:15;;;;;;;9.18;2.30;;;10.80;99.90;;;;;;5082661;28;20688;-38
2023/05/29 05:12:40;;;;;;;10.88;2.05;;;10.80;99.90;;;;;;5082053;28;20020;-41
2023/05/29 05:15:07;;;;;;;10.50;2.33;;;10.90;99.90;;;;;;5082873;28;20044;-41
2023/05/29 05:17:33;;;;;;;8.80;2.42;;;10.90;99.90;;;;;;5082034;28;20031;-41
2023/05/29 05:20:01;;;;;;;8.85;2.17;;;10.90;99.90;;;;;;5082426;28;20028;-40
2023/05/29 05:22:27;;;;;;;10.73;2.83;;;11.00;99.90;;;;;;5080755;28;20112;-40
2023/05/29 05:25:00;;;;;;;11.85;2.10;;;10.90;99.90;;;;;;5080951;28;20558;-41
2023/05/29 05:27:25;;;;;;;8.30;2.20;;;11.00;99.90;;;;;;5080891;28;20523;-41
2023/05/29 05:29:51;;;;;;;11.48;2.17;;;11.00;99.90;;;;;;5081024;28;20062;-41
2023/05/29 05:32:16;;;;;;;6.80;1.88;;;11.00;99.90;;;;;;5080996;28;20024;-43
2023/05/29 05:34:42;;;;;;;12.57;2.67;;;11.00;99.90;;;;;;5081723;28;20131;-39
2023/05/29 05:37:07;;;;;;;9.07;2.28;;;11.00;99.90;;;;;;5081693;28;20020;-39
2023/05/29 05:39:33;;;;;;;7.75;2.40;;;11.10;99.90;;;;;;5080405;28;20047;-39
2023/05/29 05:41:58;;;;;;;8.98;2.00;;;11.10;99.90;;;;;;5081718;28;20020;-42
2023/05/29 05:44:30;;;;;;;10.93;2.17;;;11.10;99.90;;;;;;5080588;28;20038;-41
2023/05/29 05:46:56;;;;;;;14.23;2.00;;;11.20;99.90;;;;;;5081143;28;20555;-42
2023/05/29 05:49:21;;;;;;;9.25;2.50;;;11.20;99.90;;;;;;5080860;28;20061;-39
2023/05/29 05:51:47;;;;;;;9.98;2.70;;;11.20;99.90;;;;;;5081557;28;20361;-40
2023/05/29 05:54:13;;;;;;;9.98;2.10;;;11.30;99.90;;;;;;5080416;28;20518;-37
2023/05/29 05:56:38;;;;;;;9.48;2.05;;;11.30;99.90;;;;;;5080824;28;20066;-40
2023/05/29 05:59:04;;;;;;;9.35;2.05;;;11.30;99.90;;;;;;5081100;28;20119;-41
2023/05/29 06:01:30;;;;;;;6.93;2.15;;;11.40;99.90;;;;;;5080550;28;20028;-42
2023/05/29 06:03:55;;;;;;;11.25;2.70;;;11.40;99.90;;;;;;5081737;28;20039;-36
2023/05/29 06:06:21;;;;;;;10.52;2.45;;;11.40;99.90;;;;;;5079963;28;20814;-40
2023/05/29 06:08:47;;;;;;;11.48;2.53;;;11.50;99.90;;;;;;5081345;28;20063;-41
2023/05/29 06:11:12;;;;;;;10.93;2.58;;;11.50;99.90;;;;;;5081194;28;20127;-41
2023/05/29 06:13:38;;;;;;;9.93;2.38;;;11.50;99.90;;;;;;5083232;28;20024;-39
2023/05/29 06:16:04;;;;;;;10.40;2.30;;;11.50;99.90;;;;;;5086183;28;20024;-42
2023/05/29 06:18:29;;;;;;;8.63;1.83;;;11.50;99.90;;;;;;5086425;28;20460;-41
2023/05/29 06:20:55;;;;;;;10.55;2.53;;;11.60;99.90;;;;;;5085219;28;20081;-41
2023/05/29 06:23:23;;;;;;;10.15;2.25;;;11.70;99.90;;;;;;5084980;28;20136;-41
2023/05/29 06:25:49;;;;;;;10.75;2.22;;;11.80;99.90;;;;;;5085410;28;20039;-40
2023/05/29 06:28:15;;;;;;;7.78;2.10;;;11.70;99.90;;;;;;5085240;28;20073;-42
2023/05/29 06:30:40;;;;;;;9.18;2.40;;;11.80;99.90;;;;;;5084416;28;20028;-42
2023/05/29 06:33:06;;;;;;;10.07;2.35;;;11.80;99.90;;;;;;5084543;28;20476;-40
2023/05/29 06:35:31;;;;;;;8.82;2.00;;;11.90;99.90;;;;;;5085510;28;20051;-41
2023/05/29 06:37:57;;;;;;;7.88;1.75;;;11.90;99.90;;;;;;5085089;28;20035;-41
2023/05/29 06:40:22;;;;;;;12.77;2.50;;;12.00;99.90;;;;;;5083776;28;20020;-42
2023/05/29 06:42:51;;;;;;;7.80;1.90;;;12.10;99.90;;;;;;5084064;28;20093;-41
2023/05/29 06:45:17;;;;;;;9.57;2.75;;;12.10;99.90;;;;;;5084191;28;20028;-42
2023/05/29 06:47:42;;;;;;;8.98;2.10;;;12.20;99.90;;;;;;5084336;28;20041;-38
2023/05/29 06:50:08;;;;;;;10.75;2.67;;;12.20;99.90;;;;;;5084552;28;20177;-39
2023/05/29 06:52:34;;;;;;;7.78;2.03;;;12.30;99.90;;;;;;5083977;28;20032;-41
2023/05/29 06:55:01;;;;;;;8.88;2.00;;;12.30;99.90;;;;;;5085104;28;20047;-42
2023/05/29 06:57:26;;;;;;;12.38;2.25;;;12.30;99.90;;;;;;5083637;28;20825;-39
2023/05/29 06:59:52;;;;;;;8.80;2.35;;;12.30;99.90;;;;;;5085301;28;20043;-41
2023/05/29 07:02:17;;;;;;;7.85;1.95;;;12.40;99.90;;;;;;5083807;28;20474;-42
2023/05/29 07:04:43;;;;;;;9.05;2.05;;;12.40;99.90;;;;;;5084896;28;20100;-43
2023/05/29 07:07:08;;;;;;;8.23;2.05;;;12.50;99.90;;;;;;5085821;28;20008;-42
2023/05/29 07:09:34;;;;;;;8.02;2.30;;;12.50;99.90;;;;;;5084052;28;20032;-40
2023/05/29 07:12:00;;;;;;;6.15;1.90;;;12.50;99.90;;;;;;5085093;28;20096;-41
2023/05/29 07:14:26;;;;;;;12.77;2.30;;;12.60;99.90;;;;;;5084322;28;20040;-40
2023/05/29 07:16:53;;;;;;;5.47;1.67;;;12.60;99.90;;;;;;5084352;28;20008;-40
2023/05/29 07:19:19;;;;;;;7.57;2.10;;;12.70;99.90;;;;;;5085088;28;20028;-42
2023/05/29 07:21:44;;;;;;;8.23;2.13;;;12.70;99.90;;;;;;5084012;28;20030;-41
2023/05/29 07:24:10;;;;;;;8.90;2.30;;;12.80;99.90;;;;;;5083147;28;20020;-40
2023/05/29 07:26:38;;;;;;;8.85;1.90;;;12.80;99.90;;;;;;5084089;28;20478;-40
2023/05/29 07:29:04;;;;;;;7.53;1.90;;;12.80;99.90;;;;;;5083567;28;20070;-41
2023/05/29 07:31:30;;;;;;;12.75;2.60;;;12.90;99.90;;;;;;5084151;28;20020;-40
2023/05/29 07:33:56;;;;;;;7.05;2.15;;;12.90;99.90;;;;;;5085173;28;20028;-42
2023/05/29 07:36:21;;;;;;;6.13;1.83;;;12.90;99.90;;;;;;5084580;28;20044;-42
2023/05/29 07:38:47;;;;;;;6.35;1.90;;;13.00;99.90;;;;;;5082550;28;20149;-41
2023/05/29 07:41:16;;;;;;;6.75;2.50;;;13.10;99.90;;;;;;5083414;28;20067;-39
2023/05/29 07:43:41;;;;;;;5.70;1.92;;;13.10;99.90;;;;;;5083789;28;20042;-42
2023/05/29 07:46:07;;;;;;;6.43;1.80;;;13.20;99.90;;;;;;5082409;28;20474;-39
2023/05/29 07:48:33;;;;;;;5.68;2.00;;;13.20;99.90;;;;;;5082143;28;20432;-41
2023/05/29 07:50:58;;;;;;;4.47;1.60;;;13.30;99.90;;;;;;5083381;28;20028;-39
2023/05/29 07:53:24;;;;;;;6.88;1.90;;;13.30;99.90;;;;;;5081278;28;20058;-38
2023/05/29 07:55:50;;;;;;;9.07;2.22;;;13.40;99.90;;;;;;5083166;28;20036;-41
2023/05/29 07:58:16;;;;;;;8.80;2.03;;;13.40;99.90;;;;;;5083000;28;20075;-40
2023/05/29 08:00:44;;;;;;;7.35;2.15;;;13.50;99.90;;;;;;5081402;28;20130;-41
2023/05/29 08:03:09;;;;;;;8.95;2.67;;;13.50;99.90;;;;;;5083045;28;20032;-41
2023/05/29 08:05:38;;;;;;;7.05;1.70;;;13.60;99.90;;;;;;5082082;28;20020;-41
2023/05/29 08:08:04;;;;;;;9.90;2.30;;;13.60;99.90;;;;;;5082928;28;20065;-41
2023/05/29 08:10:29;;;;;;;9.18;2.05;;;13.70;99.90;;;;;;5082434;28;20036;-41
2023/05/29 08:12:58;;;;;;;6.85;1.88;;;13.70;99.90;;;;;;5082416;28;20027;-43
2023/05/29 08:15:24;;;;;;;9.90;2.55;;;13.80;99.90;;;;;;5082000;28;20039;-42
2023/05/29 08:17:49;;;;;;;7.43;2.13;;;13.90;99.90;;;;;;5082566;28;20024;-42
2023/05/29 08:20:16;;;;;;;8.43;2.50;;;14.00;99.90;;;;;;5081989;28;20032;-42
2023/05/29 08:22:42;;;;;;;7.45;2.58;;;14.00;99.90;;;;;;5082279;28;20024;-40
2023/05/29 08:25:08;;;;;;;8.00;2.20;;;14.10;99.90;;;;;;5082587;28;20468;-42
2023/05/29 08:27:33;;;;;;;7.72;2.45;;;14.10;99.90;;;;;;5081530;28;20313;-42
2023/05/29 08:29:59;;;;;;;9.15;2.15;;;14.10;99.90;;;;;;5081828;28;20023;-42
2023/05/29 08:32:27;;;;;;;6.85;2.30;;;14.20;99.90;;;;;;5081720;28;20028;-42
2023/05/29 08:34:53;;;;;;;10.07;2.78;;;14.20;99.90;;;;;;5081562;28;20070;-44
2023/05/29 08:37:19;;;;;;;7.70;2.35;;;14.30;99.90;;;;;;5082353;28;20103;-41
2023/05/29 08:39:45;;;;;;;7.90;2.08;;;14.40;99.90;;;;;;5082506;28;20016;-40
2023/05/29 08:42:20;;;;;;;8.13;2.10;;;14.50;99.90;;;;;;5082847;28;20749;-41
2023/05/29 08:44:50;;;;;;;6.63;1.88;;;14.50;99.90;;;;;;5082536;28;20631;-41
2023/05/29 08:47:20;;;;;;;9.75;2.40;;;14.60;99.90;;;;;;5071841;28;20047;-41
2023/05/29 08:49:52;;;;;;;5.78;1.67;;;14.60;99.90;;;;;;5081017;28;20542;-41
2023/05/29 08:52:25;;;;;;;8.32;2.60;;;14.70;99.90;;;;;;5082644;28;20081;-41
2023/05/29 08:54:52;;;;;;;6.50;1.98;;;14.80;99.90;;;;;;5081643;28;20046;-39
2023/05/29 08:57:18;;;;;;;6.78;2.22;;;14.90;99.90;;;;;;5081673;28;20071;-39
2023/05/29 08:59:44;;;;;;;9.05;2.30;;;15.00;99.90;;;;;;5081864;28;20028;-43
2023/05/29 09:02:14;;;;;;;7.32;2.55;;;14.90;99.90;;;;;;5081759;28;20023;-42
2023/05/29 09:04:44;;;;;;;15.23;2.63;;;15.00;99.90;;;;;;5081349;28;20021;-41
2023/05/29 09:07:11;;;;;;;6.38;2.10;;;15.10;99.90;;;;;;5081975;28;21251;-42
2023/05/29 09:09:37;;;;;;;6.53;1.90;;;15.20;99.70;;;;;;5081382;28;20115;-39
2023/05/29 09:12:03;;;;;;;6.18;2.03;;;15.30;99.70;;;;;;5082258;28;20030;-41
2023/05/29 09:14:40;;;;;;;6.82;2.35;;;15.30;99.60;;;;;;5081652;28;20058;-41
2023/05/29 09:17:08;;;;;;;6.90;2.17;;;15.40;99.40;;;;;;5081399;28;20368;-42
2023/05/29 09:19:34;;;;;;;7.03;2.20;;;15.40;99.40;;;;;;5081691;28;20535;-41
2023/05/29 09:22:04;;;;;;;8.07;2.42;;;15.50;99.30;;;;;;5081968;28;20108;-43
2023/05/29 09:24:32;;;;;;;6.47;2.05;;;15.50;99.00;;;;;;5081171;28;20573;-41
2023/05/29 09:27:00;;;;;;;6.25;1.95;;;15.60;99.00;;;;;;5081722;28;20094;-40
2023/05/29 09:29:26;;;;;;;17.90;3.35;;;15.60;99.00;;;;;;5081160;28;20020;-41
2023/05/29 09:31:51;;;;;;;11.05;2.92;;;15.70;99.00;;;;;;5080865;28;20024;-41
2023/05/29 09:34:17;;;;;;;6.28;2.53;;;15.70;98.80;;;;;;5081535;28;20125;-43
2023/05/29 09:36:43;;;;;;;9.15;2.50;;;15.70;98.50;;;;;;5080970;28;20092;-42
2023/05/29 09:39:09;;;;;;;6.55;2.38;;;15.80;98.30;;;;;;5080595;28;20036;-42
2023/05/29 09:41:42;;;;;;;6.22;2.10;;;15.80;98.10;;;;;;5080797;28;20051;-41
2023/05/29 09:44:14;;;;;;;9.35;2.33;;;15.70;98.00;;;;;;5069508;28;20638;-43
2023/05/29 09:46:41;;;;;;;6.10;1.87;;;15.80;98.00;;;;;;5080762;28;20099;-41
2023/05/29 09:49:13;;;;;;;6.03;2.10;;;15.80;98.00;;;;;;5080953;28;20472;-41
2023/05/29 09:51:39;;;;;;;5.27;1.70;;;15.90;98.00;;;;;;5080121;28;20469;-42
2023/05/29 09:54:18;;;;;;;6.85;2.13;;;16.00;98.00;;;;;;5081442;28;20311;-42
2023/05/29 09:56:45;;;;;;;6.57;2.05;;;16.10;97.70;;;;;;5080812;28;20252;-42
2023/05/29 09:59:12;;;;;;;8.35;2.35;;;16.10;97.70;;;;;;5080152;28;20525;-41
2023/05/29 10:01:41;;;;;;;9.32;2.78;;;16.10;97.40;;;;;;5080630;28;20632;-40
2023/05/29 10:04:07;;;;;;;6.65;2.03;;;16.10;97.10;;;;;;5080562;28;20028;-41
2023/05/29 10:06:35;;;;;;;4.15;1.95;;;16.10;97.20;;;;;;5079713;28;20020;-37
2023/05/29 10:09:03;;;;;;;8.65;2.00;;;16.20;97.30;;;;;;5080957;28;20036;-41
2023/05/29 10:11:29;;;;;;;4.18;1.65;;;16.30;97.10;;;;;;5080672;28;20116;-42
2023/05/29 10:13:57;;;;;;;5.78;2.30;;;16.40;97.20;;;;;;5080004;28;20101;-40
2023/05/29 10:16:27;;;;;;;8.90;2.30;;;16.40;97.00;;;;;;5080827;28;20769;-42
2023/05/29 10:18:57;;;;;;;4.32;1.83;;;16.50;97.00;;;;;;5081469;28;20024;-42
2023/05/29 10:21:26;;;;;;;7.25;1.73;;;16.60;96.90;;;;;;5080667;28;20559;-43
2023/05/29 10:23:52;;;;;;;4.28;2.00;;;16.60;96.70;;;;;;5081763;28;20024;-38
2023/05/29 10:26:26;;;;;;;5.72;1.67;;;16.70;96.60;;;;;;5080703;28;20020;-42
2023/05/29 10:29:33;;;;;;;2.90;1.58;;;16.90;96.10;;;;;;5080919;28;20028;-37
2023/05/29 10:32:20;;;;;;;9.18;2.17;;;16.90;96.10;;;;;;4978464;28;20119;-42
2023/05/29 10:35:12;;;;;;;10.00;2.40;;;17.00;95.50;;;;;;5071946;28;20186;-41
2023/05/29 10:37:44;;;;;;;4.82;1.70;;;17.20;95.00;;;;;;5059781;28;20687;-40
2023/05/29 10:40:14;;;;;;;10.02;2.45;;;17.20;94.60;;;;;;5078897;28;20035;-41
2023/05/29 10:42:47;;;;;;;9.63;2.47;;;17.20;93.10;;;;;;5086357;28;20036;-42
2023/05/29 10:45:28;;;;;;;7.13;2.33;;;17.20;93.30;;;;;;5082677;28;20020;-41
2023/05/29 10:47:53;;;;;;;4.60;1.80;;;17.20;92.60;;;;;;5079930;28;20439;-42
2023/05/29 10:50:36;;;;;;;11.90;2.60;;;17.10;92.60;;;;;;5079662;28;20100;-42
2023/05/29 10:53:02;;;;;;;7.45;2.40;;;17.10;92.30;;;;;;5078398;28;20020;-41
2023/05/29 10:55:58;;;;;;;6.40;1.95;;;17.10;92.70;;;;;;5078964;28;20121;-41
2023/05/29 10:58:25;;;;;;;7.88;2.30;;;17.20;92.60;;;;;;5059367;28;20693;-42
2023/05/29 11:00:57;;;;;;;9.10;2.50;;;17.30;92.50;;;;;;5083211;28;20031;-41
2023/05/29 11:03:34;;;;;;;5.50;1.98;;;17.30;92.40;;;;;;5083889;28;20032;-37
2023/05/29 11:06:05;;;;;;;7.25;1.88;;;17.30;92.40;;;;;;5084228;28;20073;-40
2023/05/29 11:08:41;;;;;;;8.23;2.40;;;17.40;92.50;;;;;;5083384;28;20481;-43
2023/05/29 11:11:09;;;;;;;7.22;2.22;;;17.40;92.10;;;;;;5084942;28;20122;-42
2023/05/29 11:13:36;;;;;;;4.55;2.03;;;17.40;92.00;;;;;;5083514;28;20743;-41
2023/05/29 11:16:38;;;;;;;6.35;1.95;;;17.40;92.10;;;;;;5083096;28;20059;-43
2023/05/29 11:19:05;;;;;;;4.68;1.88;;;17.50;92.40;;;;;;5063846;28;20048;-42
2023/05/29 11:22:07;;;;;;;9.02;2.67;;;17.50;92.00;;;;;;5081537;28;20093;-42
2023/05/29 11:24:38;;;;;;;6.00;1.98;;;17.60;91.80;;;;;;5083016;28;20028;-43
2023/05/29 11:27:07;;;;;;;5.32;1.75;;;17.60;91.70;;;;;;5083100;28;20024;-42
2023/05/29 11:29:34;;;;;;;6.05;2.25;;;17.70;91.80;;;;;;5083203;28;20016;-42
2023/05/29 11:32:07;;;;;;;6.82;1.90;;;17.80;91.60;;;;;;5083003;28;20020;-44
2023/05/29 11:34:33;;;;;;;9.38;2.20;;;17.90;91.40;;;;;;5082483;28;20043;-42
2023/05/29 11:37:00;;;;;;;6.28;2.20;;;17.90;91.30;;;;;;5083157;28;20039;-43
2023/05/29 11:39:26;;;;;;;5.43;2.13;;;18.00;91.20;;;;;;5082928;28;20531;-42
2023/05/29 11:41:55;;;;;;;6.25;2.22;;;18.10;90.90;;;;;;5084042;28;20034;-42
2023/05/29 11:44:24;;;;;;;6.45;2.00;;;18.10;90.80;;;;;;5083741;28;20020;-42
2023/05/29 11:47:15;;;;;;;5.90;1.85;;;18.20;90.60;;;;;;5083942;28;20625;-42
2023/05/29 11:49:43;;;;;;;6.65;2.20;;;18.20;90.60;;;;;;5063777;28;20056;-42
2023/05/29 11:52:10;;;;;;;4.95;1.95;;;18.20;90.30;;;;;;5077865;28;20045;-42
2023/05/29 11:54:36;;;;;;;5.40;1.98;;;18.30;90.40;;;;;;5082900;28;20028;-41
2023/05/29 11:57:02;;;;;;;4.38;1.92;;;18.30;90.20;;;;;;5082578;28;20040;-41
2023/05/29 11:59:34;;;;;;;5.30;2.22;;;18.40;90.50;;;;;;5082865;28;20099;-43
2023/05/29 12:02:03;;;;;;;6.68;2.13;;;18.50;90.20;;;;;;5083531;28;20110;-42
2023/05/29 12:04:29;;;;;;;8.00;2.65;;;18.50;90.00;;;;;;5083230;28;20030;-42
2023/05/29 12:06:55;;;;;;;6.68;2.47;;;18.60;89.50;;;;;;5082775;28;20045;-42
2023/05/29 12:09:28;;;;;;;8.30;2.35;;;18.60;88.60;;;;;;5083157;28;20057;-42
2023/05/29 12:12:04;;;;;;;6.00;2.10;;;18.60;88.10;;;;;;5081794;28;20511;-42
2023/05/29 12:14:30;;;;;;;9.00;2.80;;;18.60;88.40;;;;;;5083142;28;20035;-40
2023/05/29 12:16:55;;;;;;;6.93;2.58;;;18.70;88.20;;;;;;5082747;28;20042;-42
2023/05/29 12:19:21;;;;;;;5.93;1.77;;;18.80;87.50;;;;;;5082529;28;20023;-43
2023/05/29 12:21:49;;;;;;;5.32;2.28;;;18.90;87.50;;;;;;5082096;28;20089;-42
2023/05/29 12:24:17;;;;;;;8.43;2.47;;;18.90;87.40;;;;;;5082003;28;20125;-43
2023/05/29 12:26:43;;;;;;;7.00;2.33;;;19.00;87.20;;;;;;5081761;28;20028;-41
2023/05/29 12:29:08;;;;;;;6.68;2.22;;;19.10;86.90;;;;;;5082318;28;20028;-41
2023/05/29 12:31:34;;;;;;;5.32;1.75;;;19.10;86.60;;;;;;5081837;28;20119;-43
2023/05/29 12:34:14;;;;;;;8.50;2.20;;;19.00;86.50;;;;;;5082257;28;20384;-42
2023/05/29 12:37:00;;;;;;;9.45;2.78;;;19.10;85.80;;;;;;5082263;28;20028;-42
2023/05/29 12:39:26;;;;;;;5.90;2.15;;;19.10;85.10;;;;;;5081362;28;20043;-42
2023/05/29 12:41:54;;;;;;;6.78;2.40;;;19.00;85.00;;;;;;5082587;28;20021;-43
2023/05/29 12:44:19;;;;;;;7.78;2.50;;;18.90;84.80;;;;;;5082585;28;20027;-40
2023/05/29 12:46:48;;;;;;;7.15;2.42;;;18.90;84.80;;;;;;5082071;28;20078;-42
2023/05/29 12:49:21;;;;;;;4.88;2.20;;;18.90;84.70;;;;;;5082371;28;20032;-42